createdAt,value
2018-10-03T00:01:02.365Z,4.90
2018-10-03T00:03:31.082Z,5.40
2018-10-03T00:06:00.347Z,3.93
2018-10-03T00:15:24.975Z,4.93
2018-10-03T00:17:54.754Z,4.93
2018-10-03T00:20:23.237Z,3.77
2018-10-03T00:22:52.312Z,4.43
2018-10-03T00:25:20.939Z,7.20
2018-10-03T00:27:49.447Z,5.50
2018-10-03T00:30:18.234Z,5.17
2018-10-03T00:32:47.185Z,6.57
2018-10-03T00:35:16.143Z,5.27
2018-10-03T00:37:44.662Z,4.10
2018-10-03T00:40:13.582Z,2.93
2018-10-03T00:42:42.041Z,4.23
2018-10-03T00:45:10.916Z,5.90
2018-10-03T00:47:39.378Z,4.67
2018-10-03T00:50:08.698Z,5.30
2018-10-03T00:52:37.877Z,4.20
2018-10-03T00:55:07.928Z,6.37
2018-10-03T00:57:58.345Z,7.63
2018-10-03T05:52:03.498Z,7.43
2018-10-03T05:54:32.075Z,7.40
2018-10-03T05:57:00.665Z,6.83
2018-10-03T05:59:29.198Z,6.87
2018-10-03T06:01:57.754Z,9.50
2018-10-03T06:04:26.368Z,5.60
2018-10-03T06:06:54.843Z,8.17
2018-10-03T06:16:23.855Z,6.63
2018-10-03T06:18:52.987Z,9.33
2018-10-03T06:21:27.357Z,7.73
2018-10-03T06:23:56.022Z,6.83
2018-10-03T06:26:24.581Z,7.87
2018-10-03T06:28:53.928Z,7.83
2018-10-03T06:31:22.424Z,7.37
2018-10-03T06:33:50.940Z,6.67
2018-10-03T06:36:19.406Z,7.03
2018-10-03T06:38:47.862Z,9.77
2018-10-03T06:41:16.350Z,8.03
2018-10-03T06:43:45.515Z,6.67
2018-10-03T06:46:14.745Z,10.10
2018-10-03T06:48:43.258Z,9.77
2018-10-03T06:51:11.740Z,9.83
2018-10-03T06:53:40.261Z,9.37
2018-10-03T06:56:08.818Z,8.63
2018-10-03T06:58:37.352Z,7.50
2018-10-03T07:01:05.818Z,6.63
2018-10-03T07:03:34.319Z,9.60
2018-10-03T07:06:03.463Z,7.90
2018-10-03T07:08:32.026Z,8.53
2018-10-03T07:11:00.503Z,10.27
2018-10-03T07:13:29.022Z,7.63
2018-10-03T07:15:57.502Z,7.97
2018-10-03T07:18:25.966Z,6.40
2018-10-03T07:20:54.438Z,5.43
2018-10-03T07:23:22.923Z,9.33
2018-10-03T07:25:51.403Z,10.40
2018-10-03T07:28:19.885Z,7.23
2018-10-03T07:30:48.502Z,10.80
2018-10-03T07:33:16.944Z,9.70
2018-10-03T07:35:45.460Z,8.67
2018-10-03T07:38:13.963Z,7.93
2018-10-03T07:40:42.408Z,6.73
2018-10-03T07:43:10.863Z,6.27
2018-10-03T07:45:39.417Z,4.93
2018-10-03T07:48:08.047Z,5.97
2018-10-03T07:50:36.438Z,8.27
2018-10-03T07:53:04.943Z,6.77
2018-10-03T07:55:33.491Z,6.60
2018-10-03T07:58:01.990Z,7.60
2018-10-03T08:00:31.295Z,11.67
2018-10-03T08:03:00.090Z,3.47
2018-10-03T08:05:29.034Z,5.60
2018-10-03T08:07:58.172Z,6.47
2018-10-03T08:10:26.766Z,7.13
2018-10-03T08:12:55.250Z,5.00
2018-10-03T08:15:23.722Z,7.93
2018-10-03T08:17:52.239Z,6.00
2018-10-03T08:20:20.768Z,7.50
2018-10-03T08:22:49.268Z,5.67
2018-10-03T08:25:17.727Z,9.70
2018-10-03T08:27:46.179Z,3.67
2018-10-03T08:30:14.660Z,9.57
2018-10-03T08:32:43.293Z,4.77
2018-10-03T08:35:11.610Z,6.03
2018-10-03T08:37:40.169Z,5.67
2018-10-03T08:40:08.683Z,6.53
2018-10-03T08:42:37.145Z,7.70
2018-10-03T08:45:05.899Z,5.27
2018-10-03T08:47:34.405Z,5.53
2018-10-03T08:50:02.942Z,6.47
2018-10-03T08:52:31.446Z,6.70
2018-10-03T08:54:59.900Z,5.93
2018-10-03T08:57:28.391Z,7.23
2018-10-03T08:59:57.062Z,8.17
2018-10-03T09:02:25.587Z,8.90
2018-10-03T09:04:54.067Z,10.77
2018-10-03T09:07:22.534Z,5.37
2018-10-03T09:09:51.056Z,8.20
2018-10-03T09:12:19.531Z,10.43
2018-10-03T09:14:47.989Z,4.20
2018-10-03T09:17:16.484Z,7.57
2018-10-03T09:19:44.958Z,5.10
2018-10-03T09:22:13.476Z,3.67
2018-10-03T09:24:42.457Z,8.90
2018-10-03T09:27:10.943Z,7.50
2018-10-03T09:29:39.445Z,6.97
2018-10-03T09:32:07.914Z,7.73
2018-10-03T09:34:36.519Z,5.00
2018-10-03T09:37:04.987Z,7.30
2018-10-03T09:39:33.583Z,5.80
2018-10-03T09:42:02.110Z,4.73
2018-10-03T09:44:30.613Z,6.40
2018-10-03T09:46:59.114Z,7.20
2018-10-03T09:49:27.593Z,8.60
2018-10-03T09:51:56.259Z,8.83
2018-10-03T09:54:24.757Z,8.60
2018-10-03T09:56:53.580Z,5.33
2018-10-03T09:59:22.093Z,5.50
2018-10-03T10:01:50.775Z,6.87
2018-10-03T10:04:20.672Z,6.10
2018-10-03T10:06:49.211Z,9.57
2018-10-03T10:09:19.102Z,4.77
2018-10-03T10:11:47.663Z,9.47
2018-10-03T10:14:16.240Z,5.40
2018-10-03T10:16:44.739Z,7.40
2018-10-03T10:19:13.282Z,5.10
2018-10-03T10:21:41.829Z,5.47
2018-10-03T10:24:10.789Z,3.13
2018-10-03T10:26:41.589Z,3.13
2018-10-03T10:29:10.157Z,10.17
2018-10-03T10:31:38.993Z,6.57
2018-10-03T10:34:07.682Z,5.97
2018-10-03T10:36:36.194Z,6.23
2018-10-03T10:39:07.856Z,7.10
2018-10-03T10:41:36.653Z,8.07
2018-10-03T10:44:04.897Z,7.87
2018-10-03T10:46:33.586Z,5.90
2018-10-03T10:49:02.087Z,7.13
2018-10-03T10:51:30.607Z,6.40
2018-10-03T10:53:59.106Z,5.53
2018-10-03T10:56:27.713Z,5.60
2018-10-03T10:58:56.268Z,5.20
2018-10-03T11:01:24.748Z,5.20
2018-10-03T11:03:53.737Z,5.43
2018-10-03T11:06:22.294Z,3.00
2018-10-03T11:08:51.117Z,4.27
2018-10-03T11:11:19.597Z,5.73
2018-10-03T11:13:48.283Z,5.70
2018-10-03T11:16:16.770Z,4.03
2018-10-03T11:18:45.308Z,5.73
2018-10-03T11:21:13.864Z,2.93
2018-10-03T11:23:59.007Z,3.10
2018-10-03T11:26:27.362Z,5.20
2018-10-03T11:28:55.868Z,6.83
2018-10-03T11:31:24.393Z,5.87
2018-10-03T11:33:52.861Z,5.70
2018-10-03T11:36:21.429Z,7.23
2018-10-03T11:38:50.014Z,9.90
2018-10-03T11:41:18.648Z,5.50
2018-10-03T11:43:47.201Z,7.43
2018-10-03T11:46:15.697Z,8.20
2018-10-03T11:48:44.294Z,7.93
2018-10-03T11:51:12.820Z,8.67
2018-10-03T11:53:41.515Z,7.57
2018-10-03T11:56:10.658Z,4.93
2018-10-03T11:58:39.214Z,5.80
2018-10-03T12:01:07.701Z,4.77
2018-10-03T12:03:36.218Z,4.83
2018-10-03T12:06:04.731Z,6.87
2018-10-03T12:08:33.293Z,7.27
2018-10-03T12:11:01.786Z,7.03
2018-10-03T12:13:30.335Z,5.80
2018-10-03T12:15:58.770Z,3.67
2018-10-03T12:18:28.349Z,5.20
2018-10-03T12:20:56.826Z,4.70
2018-10-03T12:23:25.459Z,4.87
2018-10-03T12:25:53.979Z,4.13
2018-10-03T12:28:22.439Z,5.60
2018-10-03T12:30:51.205Z,5.30
2018-10-03T12:33:20.414Z,3.27
2018-10-03T12:35:48.984Z,4.53
2018-10-03T12:38:17.438Z,5.60
2018-10-03T12:40:45.926Z,4.97
2018-10-03T12:43:14.439Z,4.90
2018-10-03T12:45:42.988Z,4.77
2018-10-03T12:48:11.501Z,6.67
2018-10-03T12:50:39.983Z,4.70
2018-10-03T12:53:08.463Z,8.27
2018-10-03T12:55:37.002Z,6.97
2018-10-03T12:58:05.493Z,6.00
2018-10-03T13:00:34.214Z,7.57
2018-10-03T13:03:03.591Z,6.03
2018-10-03T13:05:32.926Z,6.87
2018-10-03T13:08:02.060Z,7.33
2018-10-03T13:10:31.743Z,6.37
2018-10-03T13:13:00.565Z,7.03
2018-10-03T13:15:29.011Z,7.60
2018-10-03T13:17:57.480Z,4.90
2018-10-03T13:20:26.061Z,6.90
2018-10-03T13:22:54.650Z,6.10
2018-10-03T13:25:23.132Z,4.73
2018-10-03T13:27:51.671Z,8.77
2018-10-03T13:30:20.191Z,5.17
2018-10-03T13:32:48.759Z,4.50
2018-10-03T13:35:17.601Z,4.70
2018-10-03T13:37:46.074Z,3.33
2018-10-03T13:40:14.608Z,3.97
2018-10-03T13:42:43.078Z,3.87
2018-10-03T13:45:11.559Z,3.97
2018-10-03T13:47:40.160Z,4.20
2018-10-03T13:50:08.726Z,5.03
2018-10-03T13:52:37.218Z,3.63
2018-10-03T13:55:05.925Z,4.17
2018-10-03T13:57:34.602Z,5.60
2018-10-03T14:00:03.228Z,4.50
2018-10-03T14:02:32.380Z,3.67
2018-10-03T14:05:00.870Z,7.83
2018-10-03T14:07:29.354Z,5.40
2018-10-03T14:09:57.923Z,8.23
2018-10-03T14:12:26.443Z,4.80
2018-10-03T14:14:54.951Z,3.87
2018-10-03T14:17:23.539Z,3.50
2018-10-03T14:19:52.019Z,4.40
2018-10-03T14:22:20.521Z,4.17
2018-10-03T14:24:49.049Z,5.03
2018-10-03T14:27:17.563Z,5.00
2018-10-03T14:29:46.173Z,3.50
2018-10-03T14:32:14.653Z,4.93
2018-10-03T14:34:43.171Z,5.67
2018-10-03T14:37:11.713Z,3.53
2018-10-03T14:39:40.256Z,6.30
2018-10-03T14:42:08.767Z,6.10
2018-10-03T14:44:37.235Z,4.57
2018-10-03T14:47:05.768Z,5.80
2018-10-03T14:49:34.334Z,6.13
2018-10-03T14:52:02.851Z,5.60
2018-10-03T14:54:31.575Z,10.53
2018-10-03T14:57:00.307Z,4.97
2018-10-03T14:59:28.798Z,8.07
2018-10-03T15:01:57.303Z,7.40
2018-10-03T15:04:26.001Z,7.20
2018-10-03T15:06:54.638Z,7.97
2018-10-03T15:09:23.130Z,7.67
2018-10-03T15:11:51.728Z,5.87
2018-10-03T15:14:20.440Z,10.57
2018-10-03T15:16:48.987Z,7.77
2018-10-03T15:19:25.751Z,7.80
2018-10-03T15:21:54.383Z,6.27
2018-10-03T15:24:23.011Z,10.47
2018-10-03T15:26:51.790Z,7.27
2018-10-03T15:29:20.266Z,6.67
2018-10-03T15:31:48.778Z,6.07
2018-10-03T15:34:17.299Z,4.77
2018-10-03T15:36:45.887Z,7.67
2018-10-03T15:39:14.767Z,4.77
2018-10-03T15:41:43.471Z,6.07
2018-10-03T15:44:12.002Z,4.07
2018-10-03T15:46:41.439Z,3.97
2018-10-03T15:49:10.140Z,4.67
2018-10-03T15:51:38.663Z,5.43
2018-10-03T15:54:07.245Z,5.60
2018-10-03T15:56:36.134Z,5.33
2018-10-03T15:59:05.728Z,5.83
2018-10-03T16:01:34.270Z,5.53
2018-10-03T16:04:02.770Z,5.50
2018-10-03T16:06:31.257Z,5.97
2018-10-03T16:08:59.730Z,7.30
2018-10-03T16:11:28.268Z,5.87
2018-10-03T16:13:56.794Z,19.63
2018-10-03T16:16:25.308Z,6.40
2018-10-03T16:19:04.226Z,7.57
2018-10-03T16:21:32.797Z,10.33
2018-10-03T16:24:01.366Z,7.97
2018-10-03T16:26:30.050Z,12.23
2018-10-03T16:28:58.418Z,10.07
2018-10-03T16:31:26.960Z,12.40
2018-10-03T16:33:55.511Z,13.27
2018-10-03T16:36:23.972Z,16.83
2018-10-03T16:38:53.421Z,16.93
2018-10-03T16:41:22.113Z,14.40
2018-10-03T16:43:50.779Z,15.47
2018-10-03T16:46:19.363Z,23.03
2018-10-03T16:48:48.286Z,14.57
2018-10-03T16:51:17.218Z,17.40
2018-10-03T16:53:45.758Z,19.97
2018-10-03T16:56:14.434Z,23.47
2018-10-03T16:58:42.952Z,29.43
2018-10-03T17:01:11.487Z,28.90
2018-10-03T17:03:41.055Z,33.77
2018-10-03T17:06:09.615Z,39.10
2018-10-03T17:08:38.914Z,34.70
2018-10-03T17:11:08.373Z,31.80
2018-10-03T17:13:48.724Z,37.43
2018-10-03T17:16:19.273Z,41.33
2018-10-03T17:18:48.787Z,32.13
2018-10-03T17:21:17.756Z,28.83
2018-10-03T17:23:47.967Z,34.57
2018-10-03T17:26:16.879Z,26.27
2018-10-03T17:28:45.730Z,32.23
2018-10-03T17:31:14.353Z,31.47
2018-10-03T17:33:42.914Z,28.47
2018-10-03T17:36:11.467Z,23.87
2018-10-03T17:38:40.048Z,21.27
2018-10-03T17:41:08.670Z,18.30
2018-10-03T17:43:37.300Z,23.40
2018-10-03T17:46:06.067Z,20.20
2018-10-03T17:48:34.688Z,34.10
2018-10-03T17:51:03.212Z,18.23
2018-10-03T17:53:31.863Z,16.17
2018-10-03T17:56:00.429Z,15.73
2018-10-03T17:58:29.255Z,19.70
2018-10-03T18:00:59.250Z,20.93
2018-10-03T18:03:27.916Z,21.63
2018-10-03T18:05:56.625Z,21.87
2018-10-03T18:08:25.353Z,20.53
2018-10-03T18:10:53.962Z,22.13
2018-10-03T18:13:22.672Z,22.07
2018-10-03T18:15:52.251Z,24.43
2018-10-03T18:18:20.823Z,24.10
2018-10-03T18:20:49.662Z,22.93
2018-10-03T18:23:18.279Z,25.33
2018-10-03T18:25:47.233Z,22.90
2018-10-03T18:28:15.946Z,25.27
2018-10-03T18:30:45.566Z,25.63
2018-10-03T18:33:14.258Z,28.03
2018-10-03T18:35:42.868Z,24.07
2018-10-03T18:38:12.497Z,26.20
2018-10-03T18:40:41.192Z,30.50
2018-10-03T18:43:11.776Z,28.77
2018-10-03T18:45:42.406Z,29.30
2018-10-03T18:48:10.908Z,30.70
2018-10-03T18:50:41.984Z,35.77
2018-10-03T18:53:10.554Z,35.10
2018-10-03T18:55:39.249Z,32.27
2018-10-03T18:58:08.003Z,28.30
2018-10-03T19:00:36.561Z,37.00
2018-10-03T19:03:05.111Z,32.00
2018-10-03T19:05:33.670Z,31.27
2018-10-03T19:08:02.339Z,36.70
2018-10-03T19:10:31.008Z,37.07
2018-10-03T19:12:59.530Z,36.93
2018-10-03T19:15:28.320Z,35.77
2018-10-03T19:17:56.898Z,37.00
2018-10-03T19:20:25.510Z,37.33
2018-10-03T19:22:54.106Z,33.77
2018-10-03T19:25:22.960Z,31.77
2018-10-03T19:27:52.165Z,35.23
2018-10-03T19:30:20.803Z,34.33
2018-10-03T19:32:49.360Z,33.43
2018-10-03T19:35:17.996Z,36.17
2018-10-03T19:37:47.502Z,33.77
2018-10-03T19:40:17.927Z,33.70
2018-10-03T19:42:46.574Z,33.90
2018-10-03T19:45:16.932Z,41.80
2018-10-03T19:47:45.542Z,39.50
2018-10-03T19:50:14.868Z,38.60
2018-10-03T19:52:43.418Z,39.67
2018-10-03T19:55:11.988Z,36.00
2018-10-03T19:57:41.107Z,34.07
2018-10-03T20:00:09.961Z,30.90
2018-10-03T20:02:39.104Z,30.83
2018-10-03T20:05:07.694Z,31.93
2018-10-03T20:07:36.540Z,30.10
2018-10-03T20:10:05.748Z,33.37
2018-10-03T20:12:34.340Z,32.77
2018-10-03T20:15:03.140Z,31.50
2018-10-03T20:17:31.978Z,33.57
2018-10-03T20:20:00.535Z,31.33
2018-10-03T20:22:29.140Z,30.33
2018-10-03T20:24:57.785Z,26.20
2018-10-03T20:27:26.495Z,25.93
2018-10-03T20:29:55.199Z,22.70
2018-10-03T20:32:23.822Z,24.67
2018-10-03T20:34:52.472Z,22.07
2018-10-03T20:37:21.124Z,22.27
2018-10-03T20:39:50.073Z,23.47
2018-10-03T20:42:19.667Z,24.57
2018-10-03T20:44:48.240Z,21.13
2018-10-03T20:47:17.041Z,23.10
2018-10-03T20:49:45.687Z,22.27
2018-10-03T20:52:14.324Z,18.97
2018-10-03T20:54:42.996Z,22.70
2018-10-03T20:57:11.606Z,20.83
2018-10-03T20:59:40.273Z,23.17
2018-10-03T21:02:09.736Z,18.03
2018-10-03T21:04:38.350Z,19.77
2018-10-03T21:07:07.175Z,19.83
2018-10-03T21:09:35.746Z,21.07
2018-10-03T21:12:04.454Z,22.90
2018-10-03T21:14:33.101Z,21.20
2018-10-03T21:17:01.766Z,23.47
2018-10-03T21:19:30.387Z,20.23
2018-10-03T21:21:59.016Z,22.80
2018-10-03T21:24:27.836Z,22.20
2018-10-03T21:26:56.429Z,21.87
2018-10-03T21:29:25.058Z,23.97
2018-10-03T21:31:53.622Z,26.60
2018-10-03T21:34:22.266Z,23.63
2018-10-03T21:36:50.910Z,25.53
2018-10-03T21:39:19.602Z,23.97
2018-10-03T21:41:48.134Z,24.43
2018-10-03T21:44:16.676Z,25.13
2018-10-03T21:46:46.124Z,22.93
2018-10-03T21:49:14.692Z,23.13
2018-10-03T21:52:04.884Z,25.13
2018-10-03T21:54:42.416Z,23.90
2018-10-03T21:57:11.127Z,26.13
2018-10-03T21:59:39.739Z,23.37
2018-10-03T22:02:08.554Z,23.20
2018-10-03T22:04:37.328Z,23.83
2018-10-03T22:07:06.791Z,22.03
2018-10-03T22:09:35.503Z,22.50
2018-10-03T22:12:04.333Z,25.73
2018-10-03T22:14:33.112Z,24.87
2018-10-03T22:17:02.392Z,24.57
2018-10-03T22:19:31.188Z,23.57
2018-10-03T22:21:59.997Z,26.30
2018-10-03T22:24:28.832Z,26.97
2018-10-03T22:26:57.680Z,28.00
2018-10-03T22:29:26.532Z,23.40
2018-10-03T22:31:55.255Z,27.40
2018-10-03T22:34:23.917Z,26.30
2018-10-03T22:36:52.666Z,25.90
2018-10-03T22:39:21.368Z,23.67
2018-10-03T22:41:50.104Z,23.40
2018-10-03T22:44:18.963Z,24.83
2018-10-03T22:46:47.649Z,28.37
2018-10-03T22:49:16.364Z,26.37
2018-10-03T22:51:45.131Z,24.33
2018-10-03T22:54:13.896Z,26.57
2018-10-03T22:56:42.593Z,25.37
2018-10-03T22:59:11.302Z,23.27
2018-10-03T23:01:40.059Z,23.67
2018-10-03T23:04:08.836Z,27.93
2018-10-03T23:06:40.432Z,22.93
2018-10-03T23:09:09.354Z,26.43
2018-10-03T23:11:38.111Z,28.33
2018-10-03T23:14:07.014Z,29.00
2018-10-03T23:16:35.655Z,24.80
2018-10-03T23:19:04.413Z,27.17
2018-10-03T23:21:33.139Z,25.33
2018-10-03T23:24:01.827Z,25.30
2018-10-03T23:26:30.500Z,26.60
2018-10-03T23:28:59.423Z,31.23
2018-10-03T23:31:28.205Z,20.60
2018-10-03T23:33:56.943Z,24.47
2018-10-03T23:36:25.596Z,23.70
2018-10-03T23:38:54.310Z,23.77
2018-10-03T23:41:22.994Z,24.63
2018-10-03T23:43:51.709Z,24.37
2018-10-03T23:46:20.424Z,24.57
2018-10-03T23:48:49.142Z,27.20
2018-10-03T23:51:17.761Z,25.43
2018-10-03T23:53:46.515Z,22.03
2018-10-03T23:56:15.270Z,20.73
2018-10-03T23:58:43.954Z,24.93
